Terminal Aerodrome Forecast
Issued by NWS Duluth, MN

Home | Current Version | Previous Version | Text Only | Print | Product List | Glossary On
Versions: 1 2 3 4 5 6 7 8 9 10 11 12 13 14 15 16 17 18 19 20 21
000
FTUS43 KDLH 252300 AAE
TAFINL
TAF AMD
KINL 252312Z 2523/2618 26009G16KT P6SM SCT026 OVC035
      TEMPO 2600/2603 -SHRA BKN028 OVC040
     FM260400 27008G12KT P6SM SCT018 BKN028
     FM261000 28006KT P6SM BKN024=

USA.gov is the U.S. government's official web portal to all federal, state and local government web resources and services.